sensor_id;sensor_type;location;lat;lon;timestamp;temperature;humidity
9861;DHT22;4969;52.304;4.968;2023-01-16T00:00:19;15.07;59.02
9861;DHT22;4969;52.304;4.968;2023-01-16T00:02:46;15.17;59.59
9861;DHT22;4969;52.304;4.968;2023-01-16T00:05:12;15.92;60.36
9861;DHT22;4969;52.304;4.968;2023-01-16T00:07:39;16.23;59.46
9861;DHT22;4969;52.304;4.968;2023-01-16T00:10:06;15.96;58.66
9861;DHT22;4969;52.304;4.968;2023-01-16T00:12:33;16.28;59.21
9861;DHT22;4969;52.304;4.968;2023-01-16T00:15:00;16.06;59.37
9861;DHT22;4969;52.304;4.968;2023-01-16T00:17:28;15.41;61.28
9861;DHT22;4969;52.304;4.968;2023-01-16T00:19:54;15.36;57.64
9861;DHT22;4969;52.304;4.968;2023-01-16T00:22:21;15.90;60.11
9861;DHT22;4969;52.304;4.968;2023-01-16T00:24:47;15.57;60.60
9861;DHT22;4969;52.304;4.968;2023-01-16T00:27:14;15.66;60.13
9861;DHT22;4969;52.304;4.968;2023-01-16T00:29:41;16.05;59.25
9861;DHT22;4969;52.304;4.968;2023-01-16T00:32:07;15.72;59.24
9861;DHT22;4969;52.304;4.968;2023-01-16T00:34:36;15.76;59.70
9861;DHT22;4969;52.304;4.968;2023-01-16T00:37:03;15.82;59.30
9861;DHT22;4969;52.304;4.968;2023-01-16T00:39:29;16.30;59.03
9861;DHT22;4969;52.304;4.968;2023-01-16T00:41:56;15.83;57.73
9861;DHT22;4969;52.304;4.968;2023-01-16T00:44:23;16.20;58.91
9861;DHT22;4969;52.304;4.968;2023-01-16T00:46:50;16.31;58.28
9861;DHT22;4969;52.304;4.968;2023-01-16T00:49:16;16.21;57.92
9861;DHT22;4969;52.304;4.968;2023-01-16T00:51:44;16.44;58.34
9861;DHT22;4969;52.304;4.968;2023-01-16T00:54:11;16.54;57.69
9861;DHT22;4969;52.304;4.968;2023-01-16T00:56:37;16.06;56.92
9861;DHT22;4969;52.304;4.968;2023-01-16T00:59:04;16.28;57.30
9861;DHT22;4969;52.304;4.968;2023-01-16T01:01:31;16.41;58.78
9861;DHT22;4969;52.304;4.968;2023-01-16T01:03:58;16.58;57.87
9861;DHT22;4969;52.304;4.968;2023-01-16T01:06:24;16.31;58.98
9861;DHT22;4969;52.304;4.968;2023-01-16T01:08:52;16.41;58.35
9861;DHT22;4969;52.304;4.968;2023-01-16T01:11:19;16.57;57.85
9861;DHT22;4969;52.304;4.968;2023-01-16T01:13:46;16.51;58.14
9861;DHT22;4969;52.304;4.968;2023-01-16T01:16:13;16.68;58.24
9861;DHT22;4969;52.304;4.968;2023-01-16T01:18:40;16.20;58.12
9861;DHT22;4969;52.304;4.968;2023-01-16T01:21:08;16.10;53.46
9861;DHT22;4969;52.304;4.968;2023-01-16T01:23:35;16.27;58.89
9861;DHT22;4969;52.304;4.968;2023-01-16T01:26:07;16.37;58.08
9861;DHT22;4969;52.304;4.968;2023-01-16T01:28:34;16.20;57.48
9861;DHT22;4969;52.304;4.968;2023-01-16T01:31:02;15.85;59.80
9861;DHT22;4969;52.304;4.968;2023-01-16T01:33:29;15.90;58.94
9861;DHT22;4969;52.304;4.968;2023-01-16T01:35:56;16.23;58.90
9861;DHT22;4969;52.304;4.968;2023-01-16T01:38:22;16.41;58.67
9861;DHT22;4969;52.304;4.968;2023-01-16T01:40:49;16.17;58.98
9861;DHT22;4969;52.304;4.968;2023-01-16T01:43:17;16.27;58.07
9861;DHT22;4969;52.304;4.968;2023-01-16T01:45:48;16.44;58.74
9861;DHT22;4969;52.304;4.968;2023-01-16T01:48:21;16.48;56.15
9861;DHT22;4969;52.304;4.968;2023-01-16T01:50:53;16.75;57.88
9861;DHT22;4969;52.304;4.968;2023-01-16T01:53:26;16.61;57.97
9861;DHT22;4969;52.304;4.968;2023-01-16T01:55:55;16.72;57.79
9861;DHT22;4969;52.304;4.968;2023-01-16T01:58:26;16.65;56.90
9861;DHT22;4969;52.304;4.968;2023-01-16T02:00:56;16.51;57.67
9861;DHT22;4969;52.304;4.968;2023-01-16T02:03:28;16.38;59.01
9861;DHT22;4969;52.304;4.968;2023-01-16T02:05:59;16.40;58.63
9861;DHT22;4969;52.304;4.968;2023-01-16T02:08:30;16.75;58.57
9861;DHT22;4969;52.304;4.968;2023-01-16T02:11:02;16.41;58.15
9861;DHT22;4969;52.304;4.968;2023-01-16T02:13:31;16.21;55.69
9861;DHT22;4969;52.304;4.968;2023-01-16T02:15:57;16.44;59.18
9861;DHT22;4969;52.304;4.968;2023-01-16T02:18:42;16.44;58.97
9861;DHT22;4969;52.304;4.968;2023-01-16T02:21:48;16.33;58.26
9861;DHT22;4969;52.304;4.968;2023-01-16T02:24:35;16.24;59.03
9861;DHT22;4969;52.304;4.968;2023-01-16T02:27:21;16.28;57.66
9861;DHT22;4969;52.304;4.968;2023-01-16T02:30:16;16.03;59.62
9861;DHT22;4969;52.304;4.968;2023-01-16T02:32:57;16.30;59.34
9861;DHT22;4969;52.304;4.968;2023-01-16T02:35:57;16.49;58.35
9861;DHT22;4969;52.304;4.968;2023-01-16T02:38:33;16.55;58.96
9861;DHT22;4969;52.304;4.968;2023-01-16T02:41:07;16.65;58.41
9861;DHT22;4969;52.304;4.968;2023-01-16T02:43:45;16.41;56.87
9861;DHT22;4969;52.304;4.968;2023-01-16T02:46:19;16.45;56.47
9861;DHT22;4969;52.304;4.968;2023-01-16T02:48:56;16.10;58.72
9861;DHT22;4969;52.304;4.968;2023-01-16T02:51:33;16.36;59.09
9861;DHT22;4969;52.304;4.968;2023-01-16T02:54:05;16.33;57.07
9861;DHT22;4969;52.304;4.968;2023-01-16T02:56:39;16.05;59.37
9861;DHT22;4969;52.304;4.968;2023-01-16T02:59:07;16.51;58.78
9861;DHT22;4969;52.304;4.968;2023-01-16T03:01:35;16.51;58.12
9861;DHT22;4969;52.304;4.968;2023-01-16T03:04:41;16.34;57.39
9861;DHT22;4969;52.304;4.968;2023-01-16T03:10:11;16.47;58.80
9861;DHT22;4969;52.304;4.968;2023-01-16T03:12:54;16.05;58.12
9861;DHT22;4969;52.304;4.968;2023-01-16T03:15:27;16.45;57.46
9861;DHT22;4969;52.304;4.968;2023-01-16T03:18:03;16.49;58.46
9861;DHT22;4969;52.304;4.968;2023-01-16T03:20:40;16.57;56.68
9861;DHT22;4969;52.304;4.968;2023-01-16T03:23:21;16.45;57.93
9861;DHT22;4969;52.304;4.968;2023-01-16T03:25:54;16.33;57.63
9861;DHT22;4969;52.304;4.968;2023-01-16T03:28:31;16.44;58.21
9861;DHT22;4969;52.304;4.968;2023-01-16T03:31:05;16.47;57.73
9861;DHT22;4969;52.304;4.968;2023-01-16T03:33:39;16.34;58.16
9861;DHT22;4969;52.304;4.968;2023-01-16T03:36:14;16.36;58.28
9861;DHT22;4969;52.304;4.968;2023-01-16T03:38:43;16.49;57.97
9861;DHT22;4969;52.304;4.968;2023-01-16T03:41:15;16.37;57.85
9861;DHT22;4969;52.304;4.968;2023-01-16T03:43:44;16.17;58.53
9861;DHT22;4969;52.304;4.968;2023-01-16T03:46:14;16.31;58.59
9861;DHT22;4969;52.304;4.968;2023-01-16T03:48:46;16.40;58.11
9861;DHT22;4969;52.304;4.968;2023-01-16T03:51:18;16.42;57.78
9861;DHT22;4969;52.304;4.968;2023-01-16T03:53:47;15.96;58.87
9861;DHT22;4969;52.304;4.968;2023-01-16T03:56:20;16.10;58.82
9861;DHT22;4969;52.304;4.968;2023-01-16T03:58:48;16.27;58.62
9861;DHT22;4969;52.304;4.968;2023-01-16T04:01:23;16.27;58.89
9861;DHT22;4969;52.304;4.968;2023-01-16T04:03:58;16.37;58.71
9861;DHT22;4969;52.304;4.968;2023-01-16T04:06:32;16.36;58.21
9861;DHT22;4969;52.304;4.968;2023-01-16T04:09:01;16.54;58.07
9861;DHT22;4969;52.304;4.968;2023-01-16T04:11:30;16.57;57.73
9861;DHT22;4969;52.304;4.968;2023-01-16T04:13:59;16.28;58.12
9861;DHT22;4969;52.304;4.968;2023-01-16T04:16:28;16.19;58.92
9861;DHT22;4969;52.304;4.968;2023-01-16T04:18:56;16.38;58.37
9861;DHT22;4969;52.304;4.968;2023-01-16T04:21:26;16.12;57.12
9861;DHT22;4969;52.304;4.968;2023-01-16T04:23:55;16.16;58.76
9861;DHT22;4969;52.304;4.968;2023-01-16T04:26:22;16.02;58.92
9861;DHT22;4969;52.304;4.968;2023-01-16T04:28:49;15.94;58.08
9861;DHT22;4969;52.304;4.968;2023-01-16T04:31:21;15.82;59.23
9861;DHT22;4969;52.304;4.968;2023-01-16T04:33:47;15.72;59.86
9861;DHT22;4969;52.304;4.968;2023-01-16T04:36:14;15.65;58.10
9861;DHT22;4969;52.304;4.968;2023-01-16T04:38:41;15.65;59.59
9861;DHT22;4969;52.304;4.968;2023-01-16T04:41:09;15.50;59.65
9861;DHT22;4969;52.304;4.968;2023-01-16T04:43:36;15.83;60.18
9861;DHT22;4969;52.304;4.968;2023-01-16T04:46:02;16.06;59.08
9861;DHT22;4969;52.304;4.968;2023-01-16T04:48:30;15.96;59.42
9861;DHT22;4969;52.304;4.968;2023-01-16T04:50:56;15.78;59.34
9861;DHT22;4969;52.304;4.968;2023-01-16T04:53:23;16.06;58.92
9861;DHT22;4969;52.304;4.968;2023-01-16T04:55:49;15.83;59.19
9861;DHT22;4969;52.304;4.968;2023-01-16T04:58:17;15.81;59.78
9861;DHT22;4969;52.304;4.968;2023-01-16T05:00:44;15.75;59.20
9861;DHT22;4969;52.304;4.968;2023-01-16T05:03:11;15.75;59.66
9861;DHT22;4969;52.304;4.968;2023-01-16T05:05:37;16.17;58.78
9861;DHT22;4969;52.304;4.968;2023-01-16T05:08:04;16.33;58.49
9861;DHT22;4969;52.304;4.968;2023-01-16T05:10:43;16.24;57.91
9861;DHT22;4969;52.304;4.968;2023-01-16T05:13:10;16.26;58.28
9861;DHT22;4969;52.304;4.968;2023-01-16T05:15:38;16.09;58.52
9861;DHT22;4969;52.304;4.968;2023-01-16T05:18:04;16.16;58.78
9861;DHT22;4969;52.304;4.968;2023-01-16T05:20:31;15.94;59.24
9861;DHT22;4969;52.304;4.968;2023-01-16T05:22:58;15.68;60.40
9861;DHT22;4969;52.304;4.968;2023-01-16T05:25:24;15.69;57.15
9861;DHT22;4969;52.304;4.968;2023-01-16T05:27:51;15.90;58.89
9861;DHT22;4969;52.304;4.968;2023-01-16T05:30:18;15.87;59.66
9861;DHT22;4969;52.304;4.968;2023-01-16T05:32:46;16.02;58.74
9861;DHT22;4969;52.304;4.968;2023-01-16T05:35:13;15.90;59.06
9861;DHT22;4969;52.304;4.968;2023-01-16T05:37:41;15.71;53.44
9861;DHT22;4969;52.304;4.968;2023-01-16T05:40:08;15.11;51.82
9861;DHT22;4969;52.304;4.968;2023-01-16T05:42:35;15.44;58.75
9861;DHT22;4969;52.304;4.968;2023-01-16T05:45:02;15.00;54.63
9861;DHT22;4969;52.304;4.968;2023-01-16T05:47:30;15.55;57.68
9861;DHT22;4969;52.304;4.968;2023-01-16T05:49:58;15.16;53.40
9861;DHT22;4969;52.304;4.968;2023-01-16T05:52:25;15.09;58.17
9861;DHT22;4969;52.304;4.968;2023-01-16T05:54:52;14.65;58.23
9861;DHT22;4969;52.304;4.968;2023-01-16T05:57:19;14.21;60.15
9861;DHT22;4969;52.304;4.968;2023-01-16T05:59:47;14.09;55.94
9861;DHT22;4969;52.304;4.968;2023-01-16T06:02:14;14.48;59.95
9861;DHT22;4969;52.304;4.968;2023-01-16T06:04:41;14.76;61.17
9861;DHT22;4969;52.304;4.968;2023-01-16T06:07:09;14.09;59.97
9861;DHT22;4969;52.304;4.968;2023-01-16T06:09:35;13.86;57.58
9861;DHT22;4969;52.304;4.968;2023-01-16T06:12:02;13.71;62.17
9861;DHT22;4969;52.304;4.968;2023-01-16T06:14:29;13.90;60.77
9861;DHT22;4969;52.304;4.968;2023-01-16T06:16:55;14.64;61.29
9861;DHT22;4969;52.304;4.968;2023-01-16T06:19:22;13.92;59.89
9861;DHT22;4969;52.304;4.968;2023-01-16T06:21:48;14.06;63.30
9861;DHT22;4969;52.304;4.968;2023-01-16T06:24:16;14.20;62.05
9861;DHT22;4969;52.304;4.968;2023-01-16T06:26:43;14.79;61.36
9861;DHT22;4969;52.304;4.968;2023-01-16T06:29:10;14.79;56.79
9861;DHT22;4969;52.304;4.968;2023-01-16T06:31:36;13.96;59.25
9861;DHT22;4969;52.304;4.968;2023-01-16T06:34:03;13.38;62.25
9861;DHT22;4969;52.304;4.968;2023-01-16T06:36:29;13.86;63.15
9861;DHT22;4969;52.304;4.968;2023-01-16T06:38:56;14.65;60.49
9861;DHT22;4969;52.304;4.968;2023-01-16T06:41:24;14.48;61.20
9861;DHT22;4969;52.304;4.968;2023-01-16T06:43:51;14.20;59.36
9861;DHT22;4969;52.304;4.968;2023-01-16T06:46:17;14.13;62.81
9861;DHT22;4969;52.304;4.968;2023-01-16T06:48:44;14.42;57.74
9861;DHT22;4969;52.304;4.968;2023-01-16T06:51:10;14.41;62.71
9861;DHT22;4969;52.304;4.968;2023-01-16T06:53:37;13.82;57.56
9861;DHT22;4969;52.304;4.968;2023-01-16T06:56:04;14.12;57.85
9861;DHT22;4969;52.304;4.968;2023-01-16T06:58:32;13.89;61.90
9861;DHT22;4969;52.304;4.968;2023-01-16T07:00:59;13.62;59.62
9861;DHT22;4969;52.304;4.968;2023-01-16T07:03:25;14.30;60.47
9861;DHT22;4969;52.304;4.968;2023-01-16T07:05:52;13.79;64.24
9861;DHT22;4969;52.304;4.968;2023-01-16T07:08:19;13.85;61.62
9861;DHT22;4969;52.304;4.968;2023-01-16T07:10:45;14.35;62.83
9861;DHT22;4969;52.304;4.968;2023-01-16T07:13:12;15.11;60.52
9861;DHT22;4969;52.304;4.968;2023-01-16T07:15:42;14.86;56.50
9861;DHT22;4969;52.304;4.968;2023-01-16T07:18:27;14.10;61.72
9861;DHT22;4969;52.304;4.968;2023-01-16T07:21:12;14.09;61.85
9861;DHT22;4969;52.304;4.968;2023-01-16T07:23:58;13.81;62.95
9861;DHT22;4969;52.304;4.968;2023-01-16T07:26:26;14.12;62.57
9861;DHT22;4969;52.304;4.968;2023-01-16T07:28:54;13.85;56.98
9861;DHT22;4969;52.304;4.968;2023-01-16T07:31:24;14.78;61.74
9861;DHT22;4969;52.304;4.968;2023-01-16T07:33:51;15.07;60.96
9861;DHT22;4969;52.304;4.968;2023-01-16T07:36:17;14.60;56.31
9861;DHT22;4969;52.304;4.968;2023-01-16T07:38:44;14.55;62.26
9861;DHT22;4969;52.304;4.968;2023-01-16T07:41:11;14.33;61.29
9861;DHT22;4969;52.304;4.968;2023-01-16T07:43:37;14.93;60.69
9861;DHT22;4969;52.304;4.968;2023-01-16T07:46:04;15.21;60.12
9861;DHT22;4969;52.304;4.968;2023-01-16T07:48:32;15.45;59.86
9861;DHT22;4969;52.304;4.968;2023-01-16T07:50:59;15.26;59.65
9861;DHT22;4969;52.304;4.968;2023-01-16T07:53:28;15.03;59.10
9861;DHT22;4969;52.304;4.968;2023-01-16T07:55:57;14.92;60.85
9861;DHT22;4969;52.304;4.968;2023-01-16T07:58:24;14.52;59.82
9861;DHT22;4969;52.304;4.968;2023-01-16T08:00:52;15.10;61.70
9861;DHT22;4969;52.304;4.968;2023-01-16T08:03:19;15.23;61.01
9861;DHT22;4969;52.304;4.968;2023-01-16T08:05:47;14.57;52.94
9861;DHT22;4969;52.304;4.968;2023-01-16T08:08:16;14.89;60.24
9861;DHT22;4969;52.304;4.968;2023-01-16T08:10:43;14.34;52.53
9861;DHT22;4969;52.304;4.968;2023-01-16T08:13:10;14.76;61.51
9861;DHT22;4969;52.304;4.968;2023-01-16T08:15:36;14.64;56.67
9861;DHT22;4969;52.304;4.968;2023-01-16T08:18:03;14.10;60.76
9861;DHT22;4969;52.304;4.968;2023-01-16T08:20:30;14.79;58.83
9861;DHT22;4969;52.304;4.968;2023-01-16T08:22:58;15.06;61.80
9861;DHT22;4969;52.304;4.968;2023-01-16T08:25:25;14.83;52.59
9861;DHT22;4969;52.304;4.968;2023-01-16T08:27:52;14.81;61.97
9861;DHT22;4969;52.304;4.968;2023-01-16T08:30:18;14.95;60.56
9861;DHT22;4969;52.304;4.968;2023-01-16T08:32:45;15.02;61.63
9861;DHT22;4969;52.304;4.968;2023-01-16T08:35:12;14.81;53.65
9861;DHT22;4969;52.304;4.968;2023-01-16T08:37:45;14.75;62.55
9861;DHT22;4969;52.304;4.968;2023-01-16T08:40:15;14.64;62.10
9861;DHT22;4969;52.304;4.968;2023-01-16T08:42:42;15.10;61.00
9861;DHT22;4969;52.304;4.968;2023-01-16T08:45:26;14.99;60.90
9861;DHT22;4969;52.304;4.968;2023-01-16T08:48:10;14.68;57.99
9861;DHT22;4969;52.304;4.968;2023-01-16T08:50:55;14.99;59.96
9861;DHT22;4969;52.304;4.968;2023-01-16T08:53:40;14.99;62.59
9861;DHT22;4969;52.304;4.968;2023-01-16T08:56:08;14.98;59.59
9861;DHT22;4969;52.304;4.968;2023-01-16T08:58:34;14.75;61.38
9861;DHT22;4969;52.304;4.968;2023-01-16T09:01:01;14.50;60.62
9861;DHT22;4969;52.304;4.968;2023-01-16T09:03:28;14.78;61.43
9861;DHT22;4969;52.304;4.968;2023-01-16T09:05:54;14.09;62.77
9861;DHT22;4969;52.304;4.968;2023-01-16T09:08:21;14.54;63.37
9861;DHT22;4969;52.304;4.968;2023-01-16T09:10:47;14.86;63.77
9861;DHT22;4969;52.304;4.968;2023-01-16T09:13:29;14.41;63.70
9861;DHT22;4969;52.304;4.968;2023-01-16T09:16:13;14.88;60.18
9861;DHT22;4969;52.304;4.968;2023-01-16T09:18:39;14.40;62.20
9861;DHT22;4969;52.304;4.968;2023-01-16T09:21:06;14.96;63.85
9861;DHT22;4969;52.304;4.968;2023-01-16T09:23:33;15.09;61.87
9861;DHT22;4969;52.304;4.968;2023-01-16T09:25:59;14.69;63.03
9861;DHT22;4969;52.304;4.968;2023-01-16T09:28:26;14.09;59.13
9861;DHT22;4969;52.304;4.968;2023-01-16T09:30:54;14.69;66.20
9861;DHT22;4969;52.304;4.968;2023-01-16T09:33:21;15.16;65.12
9861;DHT22;4969;52.304;4.968;2023-01-16T09:35:47;15.26;61.61
9861;DHT22;4969;52.304;4.968;2023-01-16T09:38:14;15.28;61.41
9861;DHT22;4969;52.304;4.968;2023-01-16T09:40:43;14.05;64.16
9861;DHT22;4969;52.304;4.968;2023-01-16T09:43:25;14.51;63.87
9861;DHT22;4969;52.304;4.968;2023-01-16T09:46:10;14.68;65.14
9861;DHT22;4969;52.304;4.968;2023-01-16T09:48:44;14.60;65.90
9861;DHT22;4969;52.304;4.968;2023-01-16T09:51:14;14.23;62.47
9861;DHT22;4969;52.304;4.968;2023-01-16T09:53:45;14.92;65.08
9861;DHT22;4969;52.304;4.968;2023-01-16T09:56:37;15.55;62.45
9861;DHT22;4969;52.304;4.968;2023-01-16T09:59:27;15.55;60.85
9861;DHT22;4969;52.304;4.968;2023-01-16T10:02:03;15.13;62.55
9861;DHT22;4969;52.304;4.968;2023-01-16T10:04:31;14.47;62.79
9861;DHT22;4969;52.304;4.968;2023-01-16T10:09:54;15.81;63.81
9861;DHT22;4969;52.304;4.968;2023-01-16T10:12:30;15.86;62.59
9861;DHT22;4969;52.304;4.968;2023-01-16T10:15:09;15.64;62.91
9861;DHT22;4969;52.304;4.968;2023-01-16T10:17:46;15.89;63.28
9861;DHT22;4969;52.304;4.968;2023-01-16T10:20:34;15.51;62.39
9861;DHT22;4969;52.304;4.968;2023-01-16T10:23:22;15.54;63.80
9861;DHT22;4969;52.304;4.968;2023-01-16T10:25:59;15.48;61.49
9861;DHT22;4969;52.304;4.968;2023-01-16T10:28:36;15.50;64.72
9861;DHT22;4969;52.304;4.968;2023-01-16T10:31:08;15.30;64.13
9861;DHT22;4969;52.304;4.968;2023-01-16T10:33:42;15.27;61.23
9861;DHT22;4969;52.304;4.968;2023-01-16T10:36:12;14.98;65.33
9861;DHT22;4969;52.304;4.968;2023-01-16T10:38:42;14.90;64.02
9861;DHT22;4969;52.304;4.968;2023-01-16T10:41:15;15.68;63.32
9861;DHT22;4969;52.304;4.968;2023-01-16T10:43:56;15.61;62.70
9861;DHT22;4969;52.304;4.968;2023-01-16T10:46:37;14.81;67.29
9861;DHT22;4969;52.304;4.968;2023-01-16T10:49:23;15.17;66.96
9861;DHT22;4969;52.304;4.968;2023-01-16T10:51:54;15.09;66.15
9861;DHT22;4969;52.304;4.968;2023-01-16T10:54:21;15.40;58.81
9861;DHT22;4969;52.304;4.968;2023-01-16T10:56:47;15.43;62.17
9861;DHT22;4969;52.304;4.968;2023-01-16T10:59:15;15.71;64.74
9861;DHT22;4969;52.304;4.968;2023-01-16T11:01:42;16.02;61.76
9861;DHT22;4969;52.304;4.968;2023-01-16T11:04:10;15.28;61.95
9861;DHT22;4969;52.304;4.968;2023-01-16T11:06:39;15.82;61.55
9861;DHT22;4969;52.304;4.968;2023-01-16T11:09:16;14.95;65.27
9861;DHT22;4969;52.304;4.968;2023-01-16T11:11:44;14.45;64.62
9861;DHT22;4969;52.304;4.968;2023-01-16T11:14:30;13.71;61.37
9861;DHT22;4969;52.304;4.968;2023-01-16T11:17:22;15.24;66.48
9861;DHT22;4969;52.304;4.968;2023-01-16T11:20:08;15.87;61.99
9861;DHT22;4969;52.304;4.968;2023-01-16T11:22:38;15.72;60.48
9861;DHT22;4969;52.304;4.968;2023-01-16T11:25:09;15.23;64.74
9861;DHT22;4969;52.304;4.968;2023-01-16T11:27:37;15.65;61.63
9861;DHT22;4969;52.304;4.968;2023-01-16T11:30:07;15.71;64.35
9861;DHT22;4969;52.304;4.968;2023-01-16T11:32:35;15.82;64.83
9861;DHT22;4969;52.304;4.968;2023-01-16T11:35:11;15.86;61.38
9861;DHT22;4969;52.304;4.968;2023-01-16T11:37:42;15.54;64.36
9861;DHT22;4969;52.304;4.968;2023-01-16T11:40:16;14.92;63.76
9861;DHT22;4969;52.304;4.968;2023-01-16T11:42:51;15.18;65.80
9861;DHT22;4969;52.304;4.968;2023-01-16T11:45:42;14.92;58.75
9861;DHT22;4969;52.304;4.968;2023-01-16T11:48:27;15.03;62.76
9861;DHT22;4969;52.304;4.968;2023-01-16T11:50:55;14.73;64.55
9861;DHT22;4969;52.304;4.968;2023-01-16T11:53:28;14.86;64.08
9861;DHT22;4969;52.304;4.968;2023-01-16T11:59:00;14.57;64.30
9861;DHT22;4969;52.304;4.968;2023-01-16T12:01:44;15.33;64.41
9861;DHT22;4969;52.304;4.968;2023-01-16T12:04:35;14.89;64.34
9861;DHT22;4969;52.304;4.968;2023-01-16T12:07:09;15.11;64.86
9861;DHT22;4969;52.304;4.968;2023-01-16T12:09:48;15.54;59.25
9861;DHT22;4969;52.304;4.968;2023-01-16T12:12:28;15.69;62.95
9861;DHT22;4969;52.304;4.968;2023-01-16T12:15:18;15.43;63.12
9861;DHT22;4969;52.304;4.968;2023-01-16T12:17:59;15.13;64.60
9861;DHT22;4969;52.304;4.968;2023-01-16T12:20:33;14.88;61.72
9861;DHT22;4969;52.304;4.968;2023-01-16T12:23:24;14.62;61.09
9861;DHT22;4969;52.304;4.968;2023-01-16T12:26:06;14.89;65.31
9861;DHT22;4969;52.304;4.968;2023-01-16T12:28:44;14.79;62.78
9861;DHT22;4969;52.304;4.968;2023-01-16T12:31:42;15.11;64.01
9861;DHT22;4969;52.304;4.968;2023-01-16T12:34:32;14.48;63.39
9861;DHT22;4969;52.304;4.968;2023-01-16T12:37:12;14.31;63.04
9861;DHT22;4969;52.304;4.968;2023-01-16T12:39:48;14.86;63.65
9861;DHT22;4969;52.304;4.968;2023-01-16T12:42:28;14.82;61.57
9861;DHT22;4969;52.304;4.968;2023-01-16T12:45:25;15.23;62.83
9861;DHT22;4969;52.304;4.968;2023-01-16T12:48:02;14.85;62.84
9861;DHT22;4969;52.304;4.968;2023-01-16T12:50:43;15.30;61.56
9861;DHT22;4969;52.304;4.968;2023-01-16T12:53:48;15.40;63.43
9861;DHT22;4969;52.304;4.968;2023-01-16T12:56:27;14.79;62.83
9861;DHT22;4969;52.304;4.968;2023-01-16T12:59:00;14.93;62.79
9861;DHT22;4969;52.304;4.968;2023-01-16T13:01:33;15.68;62.49
9861;DHT22;4969;52.304;4.968;2023-01-16T13:04:05;15.78;61.69
9861;DHT22;4969;52.304;4.968;2023-01-16T13:06:37;15.51;60.62
9861;DHT22;4969;52.304;4.968;2023-01-16T13:09:13;15.33;59.82
9861;DHT22;4969;52.304;4.968;2023-01-16T13:11:50;15.33;58.45
9861;DHT22;4969;52.304;4.968;2023-01-16T13:14:42;15.09;61.45
9861;DHT22;4969;52.304;4.968;2023-01-16T13:17:14;14.42;63.21
9861;DHT22;4969;52.304;4.968;2023-01-16T13:19:42;14.27;65.69
9861;DHT22;4969;52.304;4.968;2023-01-16T13:22:19;14.61;65.35
9861;DHT22;4969;52.304;4.968;2023-01-16T13:24:51;14.35;63.99
9861;DHT22;4969;52.304;4.968;2023-01-16T13:27:24;14.06;64.12
9861;DHT22;4969;52.304;4.968;2023-01-16T13:30:00;13.83;66.62
9861;DHT22;4969;52.304;4.968;2023-01-16T13:32:30;13.82;65.67
9861;DHT22;4969;52.304;4.968;2023-01-16T13:35:02;13.41;65.91
9861;DHT22;4969;52.304;4.968;2023-01-16T13:37:49;13.71;65.74
9861;DHT22;4969;52.304;4.968;2023-01-16T13:40:37;13.54;64.91
9861;DHT22;4969;52.304;4.968;2023-01-16T13:43:08;13.57;65.62
9861;DHT22;4969;52.304;4.968;2023-01-16T13:46:04;13.54;66.69
9861;DHT22;4969;52.304;4.968;2023-01-16T13:48:32;13.12;65.69
9861;DHT22;4969;52.304;4.968;2023-01-16T13:51:01;12.89;65.72
9861;DHT22;4969;52.304;4.968;2023-01-16T13:53:31;12.79;67.74
9861;DHT22;4969;52.304;4.968;2023-01-16T13:56:05;13.12;67.80
9861;DHT22;4969;52.304;4.968;2023-01-16T13:58:33;12.93;66.84
9861;DHT22;4969;52.304;4.968;2023-01-16T14:01:05;12.82;68.79
9861;DHT22;4969;52.304;4.968;2023-01-16T14:03:33;13.47;68.72
9861;DHT22;4969;52.304;4.968;2023-01-16T14:06:21;13.50;65.93
9861;DHT22;4969;52.304;4.968;2023-01-16T14:08:52;13.65;67.17
9861;DHT22;4969;52.304;4.968;2023-01-16T14:11:38;13.41;67.35
9861;DHT22;4969;52.304;4.968;2023-01-16T14:14:20;13.00;66.43
9861;DHT22;4969;52.304;4.968;2023-01-16T14:17:09;12.76;66.79
9861;DHT22;4969;52.304;4.968;2023-01-16T14:19:37;12.93;69.24
9861;DHT22;4969;52.304;4.968;2023-01-16T14:22:17;13.20;67.05
9861;DHT22;4969;52.304;4.968;2023-01-16T14:25:03;13.89;68.14
9861;DHT22;4969;52.304;4.968;2023-01-16T14:27:34;14.34;66.33
9861;DHT22;4969;52.304;4.968;2023-01-16T14:30:04;14.31;65.87
9861;DHT22;4969;52.304;4.968;2023-01-16T14:32:35;14.16;66.11
9861;DHT22;4969;52.304;4.968;2023-01-16T14:35:04;14.06;66.66
9861;DHT22;4969;52.304;4.968;2023-01-16T14:37:39;13.93;66.67
9861;DHT22;4969;52.304;4.968;2023-01-16T14:40:19;13.69;64.10
9861;DHT22;4969;52.304;4.968;2023-01-16T14:42:49;13.10;65.59
9861;DHT22;4969;52.304;4.968;2023-01-16T14:45:34;12.86;67.29
9861;DHT22;4969;52.304;4.968;2023-01-16T14:48:35;13.19;65.12
9861;DHT22;4969;52.304;4.968;2023-01-16T14:51:29;13.19;67.48
9861;DHT22;4969;52.304;4.968;2023-01-16T14:54:18;13.12;67.85
9861;DHT22;4969;52.304;4.968;2023-01-16T14:57:06;13.02;68.47
9861;DHT22;4969;52.304;4.968;2023-01-16T14:59:37;12.64;67.17
9861;DHT22;4969;52.304;4.968;2023-01-16T15:02:08;12.83;69.83
9861;DHT22;4969;52.304;4.968;2023-01-16T15:04:52;12.92;66.85
9861;DHT22;4969;52.304;4.968;2023-01-16T15:07:25;12.82;68.16
9861;DHT22;4969;52.304;4.968;2023-01-16T15:09:54;12.75;68.98
9861;DHT22;4969;52.304;4.968;2023-01-16T15:12:35;12.79;67.33
9861;DHT22;4969;52.304;4.968;2023-01-16T15:15:02;12.65;68.31
9861;DHT22;4969;52.304;4.968;2023-01-16T15:17:31;12.47;69.66
9861;DHT22;4969;52.304;4.968;2023-01-16T15:20:21;12.72;70.36
9861;DHT22;4969;52.304;4.968;2023-01-16T15:23:16;12.57;67.62
9861;DHT22;4969;52.304;4.968;2023-01-16T15:28:49;12.45;68.70
9861;DHT22;4969;52.304;4.968;2023-01-16T15:31:23;12.29;69.41
9861;DHT22;4969;52.304;4.968;2023-01-16T15:34:00;12.47;70.28
9861;DHT22;4969;52.304;4.968;2023-01-16T15:36:35;12.80;69.96
9861;DHT22;4969;52.304;4.968;2023-01-16T15:39:19;12.88;67.62
9861;DHT22;4969;52.304;4.968;2023-01-16T15:41:51;12.83;70.65
9861;DHT22;4969;52.304;4.968;2023-01-16T15:44:37;12.69;70.52
9861;DHT22;4969;52.304;4.968;2023-01-16T15:47:51;12.83;63.66
9861;DHT22;4969;52.304;4.968;2023-01-16T15:50:30;11.74;65.80
9861;DHT22;4969;52.304;4.968;2023-01-16T15:52:59;10.89;67.59
9861;DHT22;4969;52.304;4.968;2023-01-16T15:55:28;10.45;69.81
9861;DHT22;4969;52.304;4.968;2023-01-16T15:57:56;10.41;71.85
9861;DHT22;4969;52.304;4.968;2023-01-16T16:00:30;10.71;72.01
9861;DHT22;4969;52.304;4.968;2023-01-16T16:03:00;11.31;73.95
9861;DHT22;4969;52.304;4.968;2023-01-16T16:05:29;11.44;71.22
9861;DHT22;4969;52.304;4.968;2023-01-16T16:07:57;11.24;67.21
9861;DHT22;4969;52.304;4.968;2023-01-16T16:10:26;9.45;71.96
9861;DHT22;4969;52.304;4.968;2023-01-16T16:13:16;8.06;70.99
9861;DHT22;4969;52.304;4.968;2023-01-16T16:15:54;7.47;74.01
9861;DHT22;4969;52.304;4.968;2023-01-16T16:18:38;6.85;75.39
9861;DHT22;4969;52.304;4.968;2023-01-16T16:21:06;7.09;74.54
9861;DHT22;4969;52.304;4.968;2023-01-16T16:23:33;7.37;78.99
9861;DHT22;4969;52.304;4.968;2023-01-16T16:26:03;7.01;74.37
9861;DHT22;4969;52.304;4.968;2023-01-16T16:28:34;6.58;75.23
9861;DHT22;4969;52.304;4.968;2023-01-16T16:31:09;6.91;80.37
9861;DHT22;4969;52.304;4.968;2023-01-16T16:33:39;6.88;74.84
9861;DHT22;4969;52.304;4.968;2023-01-16T16:36:07;6.67;75.25
9861;DHT22;4969;52.304;4.968;2023-01-16T16:38:46;6.50;79.25
9861;DHT22;4969;52.304;4.968;2023-01-16T16:41:45;6.23;77.01
9861;DHT22;4969;52.304;4.968;2023-01-16T16:44:38;5.88;77.70
9861;DHT22;4969;52.304;4.968;2023-01-16T16:47:20;5.51;79.46
9861;DHT22;4969;52.304;4.968;2023-01-16T16:49:47;5.48;79.84